TimeCET,TemperatureF,Dew PointF,Humidity,Sea Level PressureIn,VisibilityMPH,Wind Direction,Wind SpeedMPH,Gust SpeedMPH,PrecipitationIn,Events,Conditions,WindDirDegrees,DateUTC
12:00 AM,17.6,15.8,93,30.36,2.5,SW,3.5,-,N/A,,Mist,230,2013-01-07 23:00:00
12:30 AM,17.6,14.0,86,30.36,2.5,SW,5.8,-,N/A,,Mist,220,2013-01-07 23:30:00
1:00 AM,17,14,84,30.45,2,,2.2,,,,Mist,,2013-01-08 00:00:00
1:00 AM,17.6,14.0,86,30.36,2.5,Variable,1.2,-,N/A,,Mist,0,2013-01-08 00:00:00
1:30 AM,17.6,15.8,93,30.36,2.5,SSW,5.8,-,N/A,,Mist,210,2013-01-08 00:30:00
2:00 AM,15.8,14.0,93,30.36,2.5,SSW,4.6,-,N/A,,Mist,210,2013-01-08 01:00:00
2:30 AM,17.6,15.8,93,30.36,2.5,SSW,4.6,-,N/A,,Unknown,200,2013-01-08 01:30:00
3:00 AM,17.6,15.8,93,30.33,2.5,South,3.5,-,N/A,,Mist,170,2013-01-08 02:00:00
3:30 AM,19.4,15.8,86,30.33,2.8,SSW,2.3,-,N/A,,Mist,210,2013-01-08 02:30:00
4:00 AM,19.4,17.6,93,30.33,2.8,SW,4.6,-,N/A,,Mist,230,2013-01-08 03:00:00
4:30 AM,19.4,17.6,93,30.33,2.8,SW,5.8,-,N/A,,Mist,230,2013-01-08 03:30:00
5:00 AM,17.6,15.8,93,30.33,3.7,SSW,5.8,-,N/A,,Unknown,210,2013-01-08 04:00:00
5:30 AM,17.6,15.8,93,30.30,3.7,South,3.5,-,N/A,,Unknown,180,2013-01-08 04:30:00
6:00 AM,17.6,14.0,86,30.30,3.7,South,3.5,-,N/A,,Unknown,190,2013-01-08 05:00:00
6:30 AM,17.6,14.0,86,30.30,4.3,South,4.6,-,N/A,,Unknown,180,2013-01-08 05:30:00
7:00 AM,15,12,82,30.38,4,SSW,4.5,,,,Mist,210,2013-01-08 06:00:00
7:30 AM,17.6,14.0,86,30.30,4.3,SSW,4.6,-,N/A,,Unknown,200,2013-01-08 06:30:00
8:00 AM,19.4,15.8,86,30.27,4.3,SSW,6.9,-,N/A,,Unknown,200,2013-01-08 07:00:00
8:30 AM,21.2,15.8,80,30.30,4.3,SW,8.1,-,N/A,,Unknown,220,2013-01-08 07:30:00
9:00 AM,23.0,17.6,80,30.27,5.6,SW,10.4,-,N/A,,Unknown,220,2013-01-08 08:00:00
9:30 AM,23.0,19.4,86,30.27,5.6,SW,12.7,-,N/A,,Unknown,230,2013-01-08 08:30:00
10:00 AM,24.8,19.4,80,30.27,5.6,SW,10.4,-,N/A,,Unknown,230,2013-01-08 09:00:00
10:30 AM,24.8,21.2,86,30.27,6.2,SW,13.8,-,N/A,,Partly Cloudy,230,2013-01-08 09:30:00
11:00 AM,26.6,21.2,80,30.27,6.2,SSW,10.4,-,N/A,,Mostly Cloudy,210,2013-01-08 10:00:00
11:30 AM,26.6,23.0,86,30.24,6.2,SW,11.5,-,N/A,,Mostly Cloudy,220,2013-01-08 10:30:00
12:00 PM,26.6,21.2,80,30.24,4.3,SW,16.1,-,N/A,Snow,Light Snow,230,2013-01-08 11:00:00
12:09 PM,26.6,23.0,86,30.21,2.5,SW,20.7,-,N/A,Snow,Light Snow,230,2013-01-08 11:09:00
12:21 PM,26.6,23.0,86,30.21,1.2,SW,19.6,-,N/A,Snow,Snow,230,2013-01-08 11:21:00
12:30 PM,26.6,23.0,86,30.21,1.4,SW,19.6,-,N/A,Snow,Snow,230,2013-01-08 11:30:00
1:00 PM,26,23,85,30.27,1,SW,15.7,,,Snow,Snow,220,2013-01-08 12:00:00
1:00 PM,26.6,23.0,86,30.21,1.0,SW,16.1,-,N/A,Snow,Snow,220,2013-01-08 12:00:00
1:30 PM,26.6,24.8,93,30.21,1.2,SW,12.7,-,N/A,Snow,Snow,230,2013-01-08 12:30:00
2:00 PM,26.6,24.8,93,30.18,1.9,SW,10.4,-,N/A,Snow,Light Snow,230,2013-01-08 13:00:00
2:13 PM,26.6,24.8,93,30.18,1.4,SW,11.5,-,N/A,Snow,Snow,230,2013-01-08 13:13:00
2:30 PM,26.6,24.8,93,30.18,1.2,SW,11.5,-,N/A,Snow,Snow,230,2013-01-08 13:30:00
3:00 PM,26.6,24.8,93,30.18,1.1,SW,13.8,-,N/A,Snow,Snow,230,2013-01-08 14:00:00
3:30 PM,26.6,24.8,93,30.18,1.0,SW,15.0,-,N/A,Snow,Snow,230,2013-01-08 14:30:00
4:00 PM,26.6,24.8,93,30.18,1.2,SW,15.0,-,N/A,Snow,Snow,220,2013-01-08 15:00:00
4:30 PM,26.6,24.8,93,30.18,1.9,SW,16.1,-,N/A,Snow,Light Snow,230,2013-01-08 15:30:00
5:00 PM,28.4,24.8,86,30.18,2.2,SW,15.0,-,N/A,Snow,Light Snow,230,2013-01-08 16:00:00
5:30 PM,28.4,24.8,86,30.18,2.2,SW,17.3,-,N/A,Snow,Light Snow,230,2013-01-08 16:30:00
6:00 PM,28.4,24.8,86,30.15,2.5,SW,16.1,-,N/A,Snow,Light Snow,230,2013-01-08 17:00:00
6:30 PM,28.4,24.8,86,30.15,4.3,SW,16.1,-,N/A,,Overcast,230,2013-01-08 17:30:00
7:00 PM,28,25,83,30.23,5,WSW,15.7,,,Snow,Light Snow,240,2013-01-08 18:00:00
7:00 PM,28.4,24.8,86,30.15,5.0,WSW,16.1,-,N/A,,Overcast,240,2013-01-08 18:00:00
7:30 PM,28.4,24.8,86,30.15,5.0,SW,17.3,-,N/A,,Overcast,230,2013-01-08 18:30:00
8:00 PM,28.4,24.8,86,30.15,4.3,SW,17.3,-,N/A,,Overcast,230,2013-01-08 19:00:00
8:30 PM,28.4,24.8,86,30.15,3.7,SW,19.6,-,N/A,,Freezing Rain,230,2013-01-08 19:30:00
9:00 PM,28.4,24.8,86,30.15,2.5,SW,19.6,-,N/A,,Overcast,230,2013-01-08 20:00:00
9:11 PM,28.4,26.6,93,30.15,2.2,SW,17.3,-,N/A,,Freezing Rain,230,2013-01-08 20:11:00
9:12 PM,28.4,26.6,93,30.15,1.9,SW,17.3,-,N/A,,Freezing Rain,230,2013-01-08 20:12:00
9:30 PM,28.4,26.6,93,30.15,1.9,SW,16.1,-,N/A,,Freezing Rain,220,2013-01-08 20:30:00
10:00 PM,28.4,26.6,93,30.15,1.9,SW,16.1,-,N/A,,Freezing Rain,220,2013-01-08 21:00:00
10:30 PM,28.4,26.6,93,30.12,1.9,SW,17.3,-,N/A,,Freezing Rain,220,2013-01-08 21:30:00
11:00 PM,28.4,26.6,93,30.12,2.5,SW,17.3,-,N/A,Rain-Snow,Freezing Rain,220,2013-01-08 22:00:00
11:30 PM,28.4,26.6,93,30.12,2.5,SW,17.3,-,N/A,Rain-Snow,Freezing Rain,230,2013-01-08 22:30:00